メインページ
METAR-TAF:

METAR-TAF

空港 :

アンカラ-エセンボーア, トルコ

エセンボーア国際空港

緯度: 40-07N, 経度: 032-59E, 海抜: 953m

現時点の気象観測

当レポートは40分前の11:20(UTC)に作成
北/北東の風 11kt、から北東の間で変化する
気温 16°C
湿度 12%
気圧 1021 hPa
視程10km以上
1,500メートル以下は雲なし、積乱雲なし

METAR: LTAC 241120Z 03011KT 350V050 CAVOK 16/M13 Q1021 NOSIG RMK RWY21L 05005KT 010V070 RWY03L 03009KT 360V060 RWY21R 00000KT

時間: 15:00 (12:00 UTC)

予報

当レポートは1時間20分前の10:40(UTC)に作成
予報は24日の 12時(UTC)から 25日の 12時(UTC)まで有効
変向風 2kt
視程10km以上
1,500メートル以下は雲なし、積乱雲なし

TAF: LTAC 241040Z 2412/2512 VRB02KT CAVOK

4,000以上の空港の気象観測と天気予報(METAR報とTAF報)

利用可能な観測所は地図上に黄色い丸と赤い丸で示す。

丸の上にカーソルを重ねると観測所名を参照できる。

次にクリックすると気象観測と天気予報を参照できる。

マップの切り替え:黒色「×」印の緑ボタンをクリックして拡大、「-」印の緑ボタンをクリックして縮小、緑色の三角印をクリックして隣りの地図に切り替え


METAR-TAF: